Time;durP1;ratioP1;P1;durP2;ratioP2;P2;SDS_P1;SDS_P2;PMS_P1;PMS_P2;Temp;Humidity;BMP_temperature;BMP_pressure;BME280_temperature;BME280_humidity;BME280_pressure;Samples;Min_cycle;Max_cycle;Signal;HPM_P1;HPM_P2
2022/07/31 00:00:30;;;;;;;3.35;2.58;;;;;;;24.50;54.08;99079.03;4890066;29;20043;-94
2022/07/31 00:02:57;;;;;;;3.63;2.60;;;;;;;24.58;53.51;99077.97;4905177;29;20036;-95
2022/07/31 00:05:23;;;;;;;6.07;2.70;;;;;;;24.75;52.83;99085.69;4905470;29;20028;-93
2022/07/31 00:07:49;;;;;;;3.05;2.63;;;;;;;24.73;52.77;99078.97;4874487;29;20087;-91
2022/07/31 00:10:16;;;;;;;4.90;2.95;;;;;;;24.68;52.46;99076.56;4873572;29;20028;-93
2022/07/31 00:12:41;;;;;;;3.20;2.40;;;;;;;24.69;52.94;99086.41;4898034;29;20067;-94
2022/07/31 00:15:09;;;;;;;3.53;2.65;;;;;;;24.84;52.41;99107.50;4889802;29;20058;-94
2022/07/31 00:17:36;;;;;;;3.83;3.17;;;;;;;24.77;52.69;99094.38;4904950;29;20032;-92
2022/07/31 00:20:03;;;;;;;3.60;2.90;;;;;;;24.76;53.75;99109.34;4888999;29;20063;-93
2022/07/31 00:22:28;;;;;;;3.88;2.80;;;;;;;24.64;53.80;99086.72;4890248;29;20042;-95
2022/07/31 00:24:54;;;;;;;3.13;2.83;;;;;;;24.71;55.37;99103.34;4889129;29;20031;-94
2022/07/31 00:27:20;;;;;;;4.03;3.20;;;;;;;24.63;56.63;99090.63;4888516;29;20055;-94
2022/07/31 00:29:46;;;;;;;5.28;3.03;;;;;;;24.80;54.48;99096.41;4889619;29;20127;-93
2022/07/31 00:32:11;;;;;;;3.20;2.60;;;;;;;24.73;54.67;99070.72;4888684;29;20505;-92
2022/07/31 00:34:37;;;;;;;3.38;2.88;;;;;;;24.73;54.62;99063.25;4873301;29;20054;-93
2022/07/31 00:37:02;;;;;;;7.57;2.85;;;;;;;24.54;54.70;99050.38;4869971;29;20049;-94
2022/07/31 00:39:29;;;;;;;3.53;2.58;;;;;;;24.52;54.50;99051.94;4871991;29;20040;-94
2022/07/31 00:41:55;;;;;;;4.22;2.80;;;;;;;24.58;54.84;99053.22;4903866;29;20491;-94
2022/07/31 00:44:20;;;;;;;3.85;2.70;;;;;;;24.73;55.55;99076.22;4872845;29;20028;-93
2022/07/31 00:46:46;;;;;;;4.30;2.75;;;;;;;24.57;57.61;99046.91;4887843;29;20505;-93
2022/07/31 00:49:13;;;;;;;3.58;2.92;;;;;;;24.54;59.70;99055.09;4903981;29;20068;-93
2022/07/31 00:51:39;;;;;;;4.13;2.92;;;;;;;24.35;59.49;99050.47;4873701;29;20451;-94
2022/07/31 00:54:06;;;;;;;3.22;2.90;;;;;;;24.36;58.38;99046.53;4888722;29;20032;-93
2022/07/31 00:56:32;;;;;;;4.20;3.08;;;;;;;24.21;58.69;99040.81;4887150;29;20031;-93
2022/07/31 00:58:58;;;;;;;3.42;3.13;;;;;;;24.27;59.96;99046.78;4888125;29;20024;-92
2022/07/31 01:01:25;;;;;;;4.00;3.25;;;;;;;24.28;60.39;99048.41;4903461;29;20028;-93
2022/07/31 01:03:52;;;;;;;4.10;3.40;;;;;;;24.19;62.08;99056.09;4903952;29;20051;-93
2022/07/31 01:06:19;;;;;;;4.10;3.47;;;;;;;24.20;61.25;99054.94;4904380;29;20056;-93
2022/07/31 01:08:44;;;;;;;3.90;3.50;;;;;;;24.02;62.37;99042.84;4903993;29;20035;-93
2022/07/31 01:11:46;;;;;;;4.60;3.97;;;;;;;23.97;61.63;99041.19;4904154;29;20479;-93
2022/07/31 01:14:12;;;;;;;6.22;3.90;;;;;;;23.97;63.20;99035.69;4888797;29;20161;-94
2022/07/31 01:16:41;;;;;;;5.13;3.70;;;;;;;23.99;62.51;99031.41;4869063;29;20048;-93
2022/07/31 01:19:29;;;;;;;4.90;3.33;;;;;;;24.08;61.91;99046.88;4884357;29;20045;-93
2022/07/31 01:22:18;;;;;;;4.43;3.83;;;;;;;23.85;62.15;99024.88;4884940;29;20459;-93
2022/07/31 01:25:02;;;;;;;4.82;3.85;;;;;;;23.68;64.30;99015.91;4882882;29;20389;-94
2022/07/31 01:27:54;;;;;;;4.95;4.20;;;;;;;23.81;63.61;99030.31;4898322;29;20096;-93
2022/07/31 01:30:19;;;;;;;4.65;4.18;;;;;;;23.65;62.69;99013.09;4882953;29;20136;-94
2022/07/31 01:32:47;;;;;;;6.30;4.70;;;;;;;23.77;63.52;99018.44;4883317;29;20041;-93
2022/07/31 01:35:21;;;;;;;5.60;4.53;;;;;;;23.70;64.05;99005.34;4867503;29;20550;-92
2022/07/31 01:38:13;;;;;;;5.05;4.55;;;;;;;23.73;62.89;99001.06;4884824;29;20056;-94
2022/07/31 01:40:45;;;;;;;5.18;4.65;;;;;;;23.66;63.73;98992.69;4880333;29;20055;-94
2022/07/31 01:43:23;;;;;;;5.00;4.50;;;;;;;23.54;63.48;98974.44;4848795;29;20041;-92
2022/07/31 01:45:51;;;;;;;6.22;4.18;;;;;;;23.47;64.90;98999.81;4850451;29;20045;-94
2022/07/31 01:48:18;;;;;;;4.95;4.25;;;;;;;23.37;64.47;98992.19;4847057;29;20038;-94
2022/07/31 01:50:45;;;;;;;5.80;4.60;;;;;;;23.23;65.80;98975.41;4846093;29;20041;-94
2022/07/31 01:53:17;;;;;;;5.25;4.28;;;;;;;23.17;65.98;98988.63;4846173;29;20033;-93
2022/07/31 01:55:43;;;;;;;6.43;4.45;;;;;;;23.31;64.31;98993.63;4845363;29;20049;-95
2022/07/31 01:58:11;;;;;;;5.45;4.10;;;;;;;23.30;64.02;98981.81;4845395;29;20128;-95
2022/07/31 02:00:37;;;;;;;5.22;4.45;;;;;;;23.28;65.09;98994.34;4847900;29;20071;-94
2022/07/31 02:03:04;;;;;;;4.43;4.03;;;;;;;23.19;65.26;98978.88;4862130;29;20049;-94
2022/07/31 02:05:29;;;;;;;4.75;3.97;;;;;;;23.37;64.64;98986.69;4860540;29;20202;-93
2022/07/31 02:07:56;;;;;;;4.65;3.90;;;;;;;23.30;63.15;98973.56;4862552;29;20477;-94
2022/07/31 02:10:21;;;;;;;6.20;4.30;;;;;;;23.18;65.30;98971.81;4861044;29;20033;-94
2022/07/31 02:12:47;;;;;;;6.25;4.60;;;;;;;23.11;65.09;98968.91;4886784;29;20131;-94
2022/07/31 02:15:18;;;;;;;4.63;4.00;;;;;;;23.14;65.20;98987.41;4871384;29;20032;-95
2022/07/31 02:17:44;;;;;;;4.10;3.70;;;;;;;23.29;63.27;98983.00;4918390;29;20095;-95
2022/07/31 02:20:11;;;;;;;5.72;3.92;;;;;;;23.41;64.37;99001.28;4903441;29;20498;-94
2022/07/31 02:22:36;;;;;;;5.13;3.80;;;;;;;23.25;65.48;99001.34;4872065;29;20040;-93
2022/07/31 02:25:02;;;;;;;6.50;5.53;;;;;;;23.17;64.91;98999.63;4871670;29;20483;-94
2022/07/31 02:27:28;;;;;;;5.65;4.43;;;;;;;23.22;65.13;99004.81;4872183;29;20087;-94
2022/07/31 02:29:54;;;;;;;5.10;4.10;;;;;;;23.27;64.48;99001.00;4871882;29;20517;-94
2022/07/31 02:32:20;;;;;;;5.13;4.18;;;;;;;23.38;63.92;99007.50;4888149;29;20039;-95
2022/07/31 02:34:46;;;;;;;4.35;3.95;;;;;;;23.09;63.87;99006.13;4887557;29;20036;-94
2022/07/31 02:37:13;;;;;;;4.82;4.07;;;;;;;22.96;64.75;98989.75;4886885;29;20134;-93
2022/07/31 02:39:39;;;;;;;6.28;4.20;;;;;;;22.95;67.14;98992.88;4919692;29;20043;-94
2022/07/31 02:42:05;;;;;;;8.20;4.57;;;;;;;22.99;67.94;99007.47;4872348;29;20032;-94
2022/07/31 02:44:31;;;;;;;5.45;4.63;;;;;;;22.72;68.95;98985.34;4885499;29;20055;-94
2022/07/31 02:46:58;;;;;;;5.60;4.50;;;;;;;22.96;68.08;99006.25;4870773;29;20032;-94
2022/07/31 02:49:26;;;;;;;5.63;3.80;;;;;;;23.07;67.55;99011.19;4902494;29;20067;-93
2022/07/31 02:51:52;;;;;;;7.65;4.97;;;;;;;23.03;67.85;98997.38;4871165;29;20418;-93
2022/07/31 02:54:19;;;;;;;6.20;4.80;;;;;;;22.90;67.40;98999.44;4902766;29;20028;-94
2022/07/31 02:56:45;;;;;;;7.00;5.32;;;;;;;22.58;69.97;99002.28;4889890;29;20510;-94
2022/07/31 02:59:11;;;;;;;7.70;5.57;;;;;;;22.52;70.34;99002.94;4890287;29;20032;-95
2022/07/31 03:01:37;;;;;;;7.35;5.00;;;;;;;22.43;69.22;98983.91;4905515;29;20087;-95
2022/07/31 03:04:04;;;;;;;5.55;4.95;;;;;;;22.70;69.35;99012.38;4874240;29;20459;-95
2022/07/31 03:06:30;;;;;;;5.68;4.88;;;;;;;22.73;68.73;99003.41;4905165;29;20040;-94
2022/07/31 03:08:55;;;;;;;6.47;5.15;;;;;;;22.50;70.35;98999.75;4890053;29;20023;-95
2022/07/31 03:11:21;;;;;;;6.55;5.03;;;;;;;22.41;70.19;99027.34;4874369;29;20039;-95
2022/07/31 03:13:47;;;;;;;6.78;5.38;;;;;;;22.28;71.49;99012.16;4875018;29;20039;-95
2022/07/31 03:16:12;;;;;;;10.07;6.70;;;;;;;22.18;71.87;99003.31;4874032;29;20040;-93
2022/07/31 03:18:40;;;;;;;10.55;7.25;;;;;;;22.28;70.94;99006.69;4874293;29;20028;-95
2022/07/31 03:21:06;;;;;;;8.68;7.20;;;;;;;22.34;69.75;98995.06;4889249;29;20028;-95
2022/07/31 03:23:36;;;;;;;7.13;6.25;;;;;;;22.32;71.21;99022.06;4874707;29;20554;-94
2022/07/31 03:26:03;;;;;;;10.35;7.32;;;;;;;22.17;72.54;99014.63;4874766;29;20028;-95
2022/07/31 03:28:30;;;;;;;8.68;7.38;;;;;;;22.14;71.80;99023.56;4889728;29;20040;-95
2022/07/31 03:30:55;;;;;;;9.13;7.13;;;;;;;22.14;71.94;99027.13;4873543;29;20056;-95
2022/07/31 03:33:22;;;;;;;12.50;7.22;;;;;;;22.19;72.99;99039.75;4906167;29;20032;-95
2022/07/31 03:35:48;;;;;;;8.10;7.22;;;;;;;22.28;72.15;99039.59;4905710;29;20032;-94
2022/07/31 03:38:14;;;;;;;8.32;7.38;;;;;;;22.07;72.57;99028.88;4890596;29;20032;-95
2022/07/31 03:40:41;;;;;;;8.75;7.13;;;;;;;22.11;72.60;99027.00;4905390;29;20379;-96
2022/07/31 03:43:07;;;;;;;9.50;7.60;;;;;;;22.19;72.35;99054.25;4906685;29;20020;-94
2022/07/31 03:45:33;;;;;;;9.52;7.13;;;;;;;22.05;73.77;99033.91;4904110;29;20043;-94
2022/07/31 03:48:00;;;;;;;9.32;7.53;;;;;;;21.97;74.36;99025.50;4875052;29;20094;-94
2022/07/31 03:50:26;;;;;;;8.80;7.88;;;;;;;21.99;74.49;99045.13;4903946;29;20468;-94
2022/07/31 03:52:52;;;;;;;8.93;6.75;;;;;;;22.02;73.18;99051.06;4889336;29;20051;-94
2022/07/31 03:55:18;;;;;;;8.10;7.10;;;;;;;22.03;73.96;99060.88;4904773;29;20043;-94
2022/07/31 03:57:45;;;;;;;10.60;7.63;;;;;;;21.96;73.03;99062.28;4904908;29;20032;-94
2022/07/31 04:00:12;;;;;;;11.75;7.80;;;;;;;21.84;72.26;99051.41;4872677;29;20032;-94
2022/07/31 04:02:38;;;;;;;10.23;8.30;;;;;;;21.92;72.73;99055.13;4905205;29;20087;-94
2022/07/31 04:05:05;;;;;;;11.38;7.93;;;;;;;22.01;72.64;99061.22;4872688;29;20036;-95
2022/07/31 04:07:30;;;;;;;9.18;7.50;;;;;;;22.08;72.16;99044.97;4904096;29;20071;-94
2022/07/31 04:09:55;;;;;;;12.68;6.72;;;;;;;22.02;72.66;99054.63;4873663;29;20020;-95
2022/07/31 04:12:22;;;;;;;9.65;6.78;;;;;;;22.05;72.55;99056.63;4889196;29;20547;-94
2022/07/31 04:14:48;;;;;;;8.45;6.75;;;;;;;22.07;72.01;99061.78;4888143;29;20036;-94
2022/07/31 04:17:14;;;;;;;10.35;6.63;;;;;;;22.18;72.42;99079.28;4872673;29;20024;-94
2022/07/31 04:19:40;;;;;;;9.00;7.07;;;;;;;21.94;72.13;99055.59;4920184;29;20035;-94
2022/07/31 04:22:06;;;;;;;10.43;6.93;;;;;;;21.94;72.82;99061.84;4873594;29;20032;-94
2022/07/31 04:24:33;;;;;;;11.88;6.50;;;;;;;21.98;71.98;99064.69;4887591;29;20044;-95
2022/07/31 04:26:59;;;;;;;9.25;7.00;;;;;;;21.85;72.55;99049.44;4921173;29;20104;-94
2022/07/31 04:29:27;;;;;;;8.55;6.63;;;;;;;22.06;72.16;99071.97;4873154;29;20431;-93
2022/07/31 04:31:53;;;;;;;8.55;7.05;;;;;;;22.03;72.59;99066.38;4874553;29;20032;-94
2022/07/31 04:34:19;;;;;;;9.27;7.00;;;;;;;22.12;71.70;99064.25;4888844;29;20111;-95
2022/07/31 04:36:45;;;;;;;9.27;7.07;;;;;;;22.08;72.14;99068.84;4903233;29;20088;-93
2022/07/31 04:39:11;;;;;;;14.35;7.43;;;;;;;21.99;71.83;99061.56;4919805;29;20495;-93
2022/07/31 04:41:38;;;;;;;11.93;7.85;;;;;;;21.99;71.92;99069.81;4904141;29;20087;-96
2022/07/31 04:44:06;;;;;;;11.77;7.88;;;;;;;22.06;72.09;99087.59;4903587;29;20024;-94
2022/07/31 04:46:32;;;;;;;11.25;7.47;;;;;;;21.89;72.10;99075.81;4887839;29;20020;-93
2022/07/31 04:49:00;;;;;;;9.70;7.30;;;;;;;21.93;71.68;99079.44;4919395;29;20035;-95
2022/07/31 04:51:25;;;;;;;14.82;8.07;;;;;;;21.83;72.00;99077.22;4919549;29;20111;-95
2022/07/31 04:53:52;;;;;;;11.25;7.68;;;;;;;21.97;71.60;99102.25;4888134;29;20024;-94
2022/07/31 04:56:34;;;;;;;9.27;6.05;;;;;;;22.00;70.40;99095.28;4886836;29;20110;-94
2022/07/31 04:59:01;;;;;;;5.57;5.03;;;;;;;22.12;69.93;99103.44;4876494;29;20463;-94
2022/07/31 05:01:26;;;;;;;8.10;5.43;;;;;;;22.08;70.78;99107.22;4888599;29;20024;-94
2022/07/31 05:03:54;;;;;;;7.25;5.53;;;;;;;22.16;70.35;99112.56;4889545;29;20032;-94
2022/07/31 05:06:19;;;;;;;8.73;5.30;;;;;;;22.12;70.04;99099.88;4904098;29;20095;-94
2022/07/31 05:08:45;;;;;;;7.85;5.13;;;;;;;22.20;69.30;99104.41;4872244;29;20028;-94
2022/07/31 05:11:30;;;;;;;5.47;4.20;;;;;;;22.20;68.88;99110.72;4904346;29;20035;-94
2022/07/31 05:13:57;;;;;;;4.60;4.18;;;;;;;22.09;69.26;99098.66;4878604;29;20020;-93
2022/07/31 05:16:24;;;;;;;7.97;4.63;;;;;;;22.30;69.49;99120.38;4888770;29;20040;-94
2022/07/31 05:19:09;;;;;;;6.32;4.53;;;;;;;22.18;68.91;99123.97;4869533;29;20037;-93
2022/07/31 05:21:35;;;;;;;5.93;4.55;;;;;;;22.26;69.09;99118.69;4835418;29;20511;-94
2022/07/31 05:24:01;;;;;;;5.80;4.85;;;;;;;22.10;68.91;99104.94;4850644;29;20069;-93
2022/07/31 05:26:29;;;;;;;7.65;4.68;;;;;;;22.14;68.55;99103.91;4835860;29;20029;-94
2022/07/31 05:28:55;;;;;;;5.88;4.63;;;;;;;22.23;68.25;99111.97;4851547;29;20503;-94
2022/07/31 05:31:21;;;;;;;5.80;4.65;;;;;;;22.25;68.03;99115.16;4851115;29;20033;-96
2022/07/31 05:33:50;;;;;;;6.75;4.88;;;;;;;22.26;67.87;99115.94;4852412;29;20124;-93
2022/07/31 05:36:16;;;;;;;6.45;5.40;;;;;;;22.38;67.43;99121.34;4834255;29;20198;-95
2022/07/31 05:38:42;;;;;;;6.05;5.30;;;;;;;22.35;67.51;99122.88;4835387;29;20518;-95
2022/07/31 05:41:07;;;;;;;8.32;5.18;;;;;;;22.40;67.11;99119.06;4836865;29;20033;-95
2022/07/31 05:43:33;;;;;;;6.57;5.15;;;;;;;22.58;66.31;99125.78;4836258;29;20036;-95
2022/07/31 05:46:01;;;;;;;7.20;5.10;;;;;;;22.73;66.17;99139.84;4852458;29;20037;-93
2022/07/31 05:48:29;;;;;;;6.90;5.22;;;;;;;22.62;67.08;99125.06;4856784;29;20088;-92
2022/07/31 05:50:56;;;;;;;8.02;5.35;;;;;;;22.59;66.95;99119.13;4851500;29;20136;-94
2022/07/31 05:53:24;;;;;;;6.07;4.97;;;;;;;22.60;66.60;99119.94;4852228;29;20045;-95
2022/07/31 05:55:56;;;;;;;6.80;4.68;;;;;;;22.67;66.42;99130.28;4877574;29;20036;-93
2022/07/31 05:58:23;;;;;;;5.85;4.72;;;;;;;22.99;67.08;99153.00;4889177;29;20040;-94
2022/07/31 06:00:49;;;;;;;7.00;5.22;;;;;;;22.88;65.50;99127.25;4918852;29;20032;-93
2022/07/31 06:03:15;;;;;;;6.10;4.50;;;;;;;22.98;66.29;99124.75;4889003;29;20110;-95
2022/07/31 06:05:41;;;;;;;6.65;4.50;;;;;;;23.39;64.03;99146.47;4903538;29;20119;-94
2022/07/31 06:08:11;;;;;;;8.38;4.00;;;;;;;23.43;62.76;99130.03;4887539;29;20032;-93
2022/07/31 06:10:38;;;;;;;4.70;3.25;;;;;;;23.33;61.66;99129.47;4926577;29;20112;-94
2022/07/31 06:13:04;;;;;;;5.95;3.85;;;;;;;23.21;62.51;99110.38;4888866;29;20024;-95
2022/07/31 06:15:29;;;;;;;5.18;3.38;;;;;;;23.56;60.94;99135.06;4888227;29;20091;-94
2022/07/31 06:17:55;;;;;;;5.03;3.17;;;;;;;23.74;59.53;99126.34;4905130;29;20039;-93
2022/07/31 06:20:21;;;;;;;4.20;3.45;;;;;;;23.68;62.15;99128.63;4887495;29;20032;-96
2022/07/31 06:22:46;;;;;;;4.90;3.22;;;;;;;23.95;59.45;99129.56;4871321;29;20063;-95
2022/07/31 06:25:13;;;;;;;5.90;3.22;;;;;;;23.94;60.45;99124.41;4887759;29;20091;-93
2022/07/31 06:27:40;;;;;;;3.58;3.10;;;;;;;23.98;58.82;99115.06;4903071;29;20535;-93
2022/07/31 06:30:07;;;;;;;3.97;3.08;;;;;;;24.12;59.10;99133.81;4886456;29;20514;-94
2022/07/31 06:32:33;;;;;;;5.53;4.55;;;;;;;24.08;59.75;99118.41;4886774;29;20099;-94
2022/07/31 06:34:58;;;;;;;5.10;3.25;;;;;;;24.11;58.73;99110.19;4872130;29;20024;-94
2022/07/31 06:37:24;;;;;;;4.50;3.30;;;;;;;24.25;58.32;99123.41;4902028;29;20044;-94
2022/07/31 06:39:50;;;;;;;3.70;2.67;;;;;;;24.31;58.19;99119.19;4888315;29;20114;-94
2022/07/31 06:42:21;;;;;;;3.20;2.75;;;;;;;24.50;58.58;99136.84;4904142;29;20024;-93
2022/07/31 06:44:47;;;;;;;3.75;2.85;;;;;;;24.51;57.14;99130.16;4902616;29;20443;-93
2022/07/31 06:47:13;;;;;;;4.18;3.10;;;;;;;24.53;56.96;99119.56;4887855;29;20023;-94
2022/07/31 06:49:40;;;;;;;3.53;2.97;;;;;;;24.50;58.27;99121.09;4900554;29;20036;-94
2022/07/31 06:52:06;;;;;;;4.07;3.20;;;;;;;24.62;57.37;99122.09;4888370;29;20055;-96
2022/07/31 06:54:33;;;;;;;3.50;3.03;;;;;;;24.72;57.66;99122.25;4902696;29;20040;-95
2022/07/31 06:56:59;;;;;;;4.22;3.10;;;;;;;24.88;56.15;99127.63;4901639;29;20483;-95
2022/07/31 06:59:26;;;;;;;3.80;3.00;;;;;;;24.97;57.09;99130.09;4872024;29;20051;-93
2022/07/31 07:01:52;;;;;;;4.47;3.50;;;;;;;25.18;56.49;99138.66;4918673;29;20060;-94
2022/07/31 07:04:18;;;;;;;5.47;2.95;;;;;;;25.04;56.27;99121.94;4871222;29;20131;-94
2022/07/31 07:06:47;;;;;;;4.47;3.25;;;;;;;25.05;56.63;99151.09;4901722;29;20016;-95
2022/07/31 07:09:13;;;;;;;4.97;3.13;;;;;;;25.04;57.34;99126.66;4888430;29;20464;-96
2022/07/31 07:11:39;;;;;;;4.05;3.25;;;;;;;25.18;56.06;99126.84;4903458;29;20060;-95
2022/07/31 07:14:05;;;;;;;3.13;2.83;;;;;;;25.30;56.14;99123.13;4887107;29;20048;-95
2022/07/31 07:16:31;;;;;;;3.72;2.70;;;;;;;25.31;55.19;99116.41;4886022;29;20043;-95
2022/07/31 07:18:58;;;;;;;4.45;2.60;;;;;;;25.57;54.35;99130.16;4902283;29;20035;-94
2022/07/31 07:21:24;;;;;;;3.80;2.80;;;;;;;25.65;53.86;99125.53;4902049;29;20060;-94
2022/07/31 07:23:49;;;;;;;4.18;2.90;;;;;;;25.71;54.09;99126.78;4901893;29;20123;-94
2022/07/31 07:26:15;;;;;;;3.85;2.47;;;;;;;26.01;52.36;99135.00;4885469;29;20056;-95
2022/07/31 07:28:41;;;;;;;4.10;2.60;;;;;;;25.94;51.69;99134.13;4871693;29;20050;-94
2022/07/31 07:31:07;;;;;;;4.05;2.78;;;;;;;25.98;52.30;99132.19;4871452;29;20024;-94
2022/07/31 07:33:32;;;;;;;3.88;2.50;;;;;;;25.89;53.10;99126.97;4904612;29;20091;-93
2022/07/31 07:35:58;;;;;;;4.13;2.88;;;;;;;25.85;52.90;99117.84;4888666;29;20043;-94
2022/07/31 07:38:24;;;;;;;5.38;2.75;;;;;;;25.88;52.45;99125.38;4903416;29;20514;-93
2022/07/31 07:40:51;;;;;;;4.50;2.85;;;;;;;25.73;52.74;99118.09;4903455;29;20032;-93
2022/07/31 07:43:17;;;;;;;3.55;3.03;;;;;;;25.70;53.34;99130.69;4905441;29;20024;-93
2022/07/31 07:45:43;;;;;;;3.90;2.92;;;;;;;25.96;53.23;99131.78;4906453;29;20035;-93
2022/07/31 07:48:08;;;;;;;3.40;2.83;;;;;;;26.15;52.96;99136.34;4875140;29;20039;-94
2022/07/31 07:50:34;;;;;;;9.27;2.90;;;;;;;26.29;51.08;99103.31;4874630;29;20063;-94
2022/07/31 07:53:00;;;;;;;9.20;3.30;;;;;;;26.53;51.26;99115.75;4890047;29;20460;-95
2022/07/31 07:55:27;;;;;;;7.93;4.97;;;;;;;26.65;51.23;99122.22;4906330;29;20028;-95
2022/07/31 07:57:53;;;;;;;3.92;3.22;;;;;;;26.72;50.02;99111.19;4907188;29;20035;-95
2022/07/31 08:00:18;;;;;;;3.95;2.90;;;;;;;26.54;49.74;99109.06;4889152;29;20036;-95
2022/07/31 08:02:44;;;;;;;8.32;2.95;;;;;;;26.60;50.44;99128.84;4873472;29;20040;-96
2022/07/31 08:05:10;;;;;;;5.03;2.92;;;;;;;26.59;50.62;99116.22;4890398;29;20499;-95
2022/07/31 08:07:36;;;;;;;4.05;3.05;;;;;;;26.65;50.35;99120.22;4874345;29;20039;-94
2022/07/31 08:10:03;;;;;;;4.85;3.30;;;;;;;26.72;50.27;99122.25;4890253;29;20036;-94
2022/07/31 08:12:29;;;;;;;4.40;3.08;;;;;;;26.66;50.66;99126.53;4888891;29;20047;-95
2022/07/31 08:14:55;;;;;;;5.40;3.40;;;;;;;26.60;50.55;99112.28;4905440;29;20068;-94
2022/07/31 08:17:21;;;;;;;5.45;3.20;;;;;;;26.75;50.78;99105.72;4890010;29;20058;-94
2022/07/31 08:19:47;;;;;;;4.40;3.33;;;;;;;26.96;50.15;99118.06;4873954;29;20040;-93
2022/07/31 08:22:14;;;;;;;4.80;3.60;;;;;;;26.94;49.75;99090.03;4905472;29;20028;-96
2022/07/31 08:24:40;;;;;;;6.25;4.60;;;;;;;27.11;49.67;99114.22;4905306;29;20506;-92
2022/07/31 08:27:23;;;;;;;5.28;3.97;;;;;;;27.26;49.30;99104.03;4904713;29;20088;-94
2022/07/31 08:29:55;;;;;;;5.25;4.68;;;;;;;27.34;48.58;99119.50;4877985;29;20032;-94
2022/07/31 08:32:22;;;;;;;5.60;4.97;;;;;;;27.06;49.06;99131.16;4889273;29;20036;-94
2022/07/31 08:34:48;;;;;;;5.72;5.13;;;;;;;27.07;49.79;99121.69;4889308;29;20063;-94
2022/07/31 08:37:18;;;;;;;6.20;4.75;;;;;;;27.17;48.36;99112.66;4888886;29;20111;-96
2022/07/31 08:39:44;;;;;;;8.13;5.40;;;;;;;27.21;48.57;99110.72;4889629;29;20024;-95
2022/07/31 08:42:10;;;;;;;6.03;5.10;;;;;;;27.32;48.38;99107.25;4873648;29;20040;-94
2022/07/31 08:44:40;;;;;;;6.82;5.70;;;;;;;27.26;48.92;99117.09;4918623;29;20102;-95
2022/07/31 08:47:16;;;;;;;7.60;5.90;;;;;;;27.36;48.80;99102.50;4904429;29;20031;-95
2022/07/31 08:49:45;;;;;;;7.65;5.88;;;;;;;27.63;48.08;99105.00;4874622;29;20113;-95
2022/07/31 08:52:23;;;;;;;7.03;5.32;;;;;;;27.76;46.87;99098.69;4887284;29;20095;-94
2022/07/31 08:54:50;;;;;;;6.25;5.15;;;;;;;27.64;47.20;99092.72;4920410;29;20028;-95
2022/07/31 08:57:17;;;;;;;7.07;5.88;;;;;;;27.77;47.03;99121.63;4871675;29;20396;-94
2022/07/31 08:59:43;;;;;;;7.18;6.20;;;;;;;27.38;47.54;99094.63;4888045;29;20036;-92
2022/07/31 09:02:09;;;;;;;8.07;6.90;;;;;;;27.46;48.32;99107.31;4872804;29;20051;-94
2022/07/31 09:04:37;;;;;;;7.65;6.85;;;;;;;27.52;47.44;99094.69;4889086;29;20096;-93
2022/07/31 09:07:03;;;;;;;11.13;6.68;;;;;;;27.53;48.27;99095.47;4889141;29;20020;-93
2022/07/31 09:09:29;;;;;;;7.90;6.90;;;;;;;27.51;47.95;99092.31;4889672;29;20090;-93
2022/07/31 09:11:55;;;;;;;7.47;6.60;;;;;;;27.49;47.25;99084.38;4873078;29;20024;-94
2022/07/31 09:14:25;;;;;;;7.60;6.78;;;;;;;27.45;47.85;99085.56;4872603;29;20028;-94
2022/07/31 09:16:51;;;;;;;7.32;6.53;;;;;;;27.35;48.66;99073.25;4903606;29;20036;-94
2022/07/31 09:19:19;;;;;;;8.57;6.95;;;;;;;27.60;47.71;99082.47;4873878;29;20100;-94
2022/07/31 09:21:45;;;;;;;10.07;7.05;;;;;;;27.97;48.20;99084.16;4888884;29;20044;-95
2022/07/31 09:24:13;;;;;;;7.93;7.00;;;;;;;28.04;47.03;99072.31;4887849;29;20072;-95
2022/07/31 09:26:43;;;;;;;8.43;6.53;;;;;;;28.10;46.74;99075.44;4903365;29;20020;-95
2022/07/31 09:29:11;;;;;;;7.60;6.80;;;;;;;27.89;45.69;99074.25;4889077;29;20024;-95
2022/07/31 09:31:37;;;;;;;7.10;6.40;;;;;;;27.84;46.25;99071.06;4873247;29;20276;-96
2022/07/31 09:34:03;;;;;;;9.07;6.30;;;;;;;27.78;46.20;99076.16;4872560;29;20039;-95
2022/07/31 09:36:29;;;;;;;7.95;6.60;;;;;;;27.71;46.57;99078.94;4871969;29;20055;-94
2022/07/31 09:38:55;;;;;;;8.73;6.15;;;;;;;27.54;46.84;99050.84;4873382;29;20376;-95
2022/07/31 09:41:21;;;;;;;6.78;6.00;;;;;;;27.68;47.54;99046.50;4887780;29;20079;-96
2022/07/31 09:44:04;;;;;;;10.18;6.65;;;;;;;27.98;45.80;99065.56;4886595;29;20075;-94
2022/07/31 09:46:41;;;;;;;7.50;6.30;;;;;;;28.04;45.43;99049.34;4904694;29;20088;-94
2022/07/31 09:49:07;;;;;;;7.47;6.32;;;;;;;27.82;46.71;99041.00;4871033;29;20044;-95
2022/07/31 09:51:47;;;;;;;8.68;7.00;;;;;;;27.66;46.64;99048.88;4887937;29;20123;-95
2022/07/31 09:54:23;;;;;;;7.68;6.68;;;;;;;27.72;46.52;99058.38;4904712;29;20028;-95
2022/07/31 09:56:50;;;;;;;7.82;6.55;;;;;;;27.88;45.76;99069.91;4889585;29;20028;-96
2022/07/31 09:59:17;;;;;;;7.22;6.50;;;;;;;27.74;45.77;99053.25;4888549;29;20063;-95
2022/07/31 10:01:47;;;;;;;7.75;6.43;;;;;;;27.78;46.20;99067.88;4918531;29;20044;-95
2022/07/31 10:04:17;;;;;;;7.55;6.75;;;;;;;27.91;46.71;99058.06;4887071;29;20036;-94
2022/07/31 10:06:44;;;;;;;8.20;6.32;;;;;;;28.08;44.74;99056.50;4872239;29;20024;-94
2022/07/31 10:09:11;;;;;;;7.60;6.78;;;;;;;28.15;45.13;99058.47;4888997;29;20044;-95
2022/07/31 10:11:37;;;;;;;8.18;5.90;;;;;;;28.12;44.51;99054.53;4903497;29;20028;-93
2022/07/31 10:14:03;;;;;;;8.35;6.80;;;;;;;28.16;44.59;99033.16;4884006;29;20038;-96
2022/07/31 10:16:30;;;;;;;6.90;6.18;;;;;;;28.41;44.53;99046.22;4886741;29;20050;-93
2022/07/31 10:18:59;;;;;;;6.63;5.93;;;;;;;28.26;43.89;99028.00;4902866;29;20044;-93
2022/07/31 10:21:36;;;;;;;6.30;5.60;;;;;;;28.32;44.00;99024.44;4900818;29;20071;-95
2022/07/31 10:24:04;;;;;;;7.53;6.32;;;;;;;28.56;44.14;99035.94;4905411;29;20034;-93
2022/07/31 10:26:30;;;;;;;7.00;6.07;;;;;;;28.52;43.17;99022.06;4919532;29;20095;-94
2022/07/31 10:28:56;;;;;;;6.32;5.70;;;;;;;28.57;43.03;99024.44;4918033;29;20043;-95
2022/07/31 10:31:22;;;;;;;6.88;5.78;;;;;;;28.88;42.77;99035.06;4918228;29;20483;-96
2022/07/31 10:33:49;;;;;;;7.72;6.78;;;;;;;28.95;42.64;99021.16;4887862;29;20036;-94
2022/07/31 10:36:19;;;;;;;7.88;5.82;;;;;;;29.19;40.72;99014.75;4904880;29;20130;-95
2022/07/31 10:38:50;;;;;;;6.47;5.78;;;;;;;29.25;39.05;99015.13;4887783;29;20032;-94
2022/07/31 10:41:30;;;;;;;;;;;;;;;29.36;39.12;99023.41;4903422;29;20032;-94
2022/07/31 10:43:59;;;;;;;5.32;4.78;;;;;;;29.20;39.81;99016.34;4918792;29;19973;-94
2022/07/31 10:46:30;;;;;;;6.05;4.95;;;;;;;29.18;39.80;98998.53;4887474;29;20035;-94
2022/07/31 10:48:58;;;;;;;5.28;4.78;;;;;;;29.41;39.01;99012.69;4904452;29;20541;-94
2022/07/31 10:51:25;;;;;;;8.68;5.50;;;;;;;29.47;38.21;98985.31;4887161;29;20023;-94
2022/07/31 10:53:54;;;;;;;6.50;4.95;;;;;;;29.66;38.44;98999.84;4902476;29;20075;-94
2022/07/31 10:56:23;;;;;;;5.82;4.85;;;;;;;29.51;37.43;98974.16;4901751;29;20479;-95
2022/07/31 10:58:55;;;;;;;6.30;5.05;;;;;;;29.64;37.80;98977.28;4886327;29;20042;-95
2022/07/31 11:01:21;;;;;;;5.85;4.15;;;;;;;29.65;37.49;98987.16;4902791;29;20036;-95
2022/07/31 11:03:49;;;;;;;5.07;4.10;;;;;;;29.51;37.33;98980.53;4886844;29;20129;-95
2022/07/31 11:06:16;;;;;;;4.55;3.97;;;;;;;29.49;37.35;98971.81;4885640;29;20072;-94
2022/07/31 11:08:46;;;;;;;4.88;4.22;;;;;;;29.80;36.90;98963.69;4902871;29;20039;-95
2022/07/31 11:11:12;;;;;;;5.45;4.10;;;;;;;29.89;37.02;98952.91;4918556;29;20032;-96
2022/07/31 11:13:45;;;;;;;4.95;4.43;;;;;;;29.86;37.75;98973.16;4902120;29;20411;-96
2022/07/31 11:16:11;;;;;;;5.43;4.43;;;;;;;29.80;37.61;98960.91;4905216;29;20036;-94
2022/07/31 11:18:37;;;;;;;5.03;4.40;;;;;;;29.88;37.41;98962.44;4905496;29;20119;-95
2022/07/31 11:21:05;;;;;;;5.13;4.63;;;;;;;29.62;37.29;98945.16;4905492;29;20455;-94
2022/07/31 11:23:31;;;;;;;4.38;3.85;;;;;;;29.89;37.59;98957.69;4906383;29;20115;-95
2022/07/31 11:26:06;;;;;;;5.72;4.38;;;;;;;30.05;37.73;98959.91;4888976;29;20032;-96
2022/07/31 11:28:32;;;;;;;4.10;3.70;;;;;;;30.07;35.79;98943.63;4905716;29;20039;-94
2022/07/31 11:31:00;;;;;;;5.32;4.03;;;;;;;30.11;37.63;98959.06;4890850;29;20059;-94
2022/07/31 11:33:40;;;;;;;4.93;4.05;;;;;;;30.16;36.37;98913.41;4905420;29;20028;-96
2022/07/31 11:36:20;;;;;;;5.33;3.70;;;;;;;30.43;36.52;98935.75;4921887;29;20028;-94